sensor_id;sensor_type;location;lat;lon;timestamp;P1;durP1;ratioP1;P2;durP2;ratioP2
48859;SDS011;34679;51.436;-2.518;2023-04-25T00:02:04;14.77;;;5.28;;
48859;SDS011;34679;51.436;-2.518;2023-04-25T00:04:30;14.57;;;4.80;;
48859;SDS011;34679;51.436;-2.518;2023-04-25T00:06:58;18.23;;;5.30;;
48859;SDS011;34679;51.436;-2.518;2023-04-25T00:09:26;16.73;;;5.55;;
48859;SDS011;34679;51.436;-2.518;2023-04-25T00:11:52;14.65;;;6.20;;
48859;SDS011;34679;51.436;-2.518;2023-04-25T00:14:18;14.40;;;5.35;;
48859;SDS011;34679;51.436;-2.518;2023-04-25T00:16:44;16.58;;;5.63;;
48859;SDS011;34679;51.436;-2.518;2023-04-25T00:19:09;14.95;;;5.03;;
48859;SDS011;34679;51.436;-2.518;2023-04-25T00:21:35;15.90;;;4.70;;
48859;SDS011;34679;51.436;-2.518;2023-04-25T00:24:05;14.13;;;5.10;;
48859;SDS011;34679;51.436;-2.518;2023-04-25T00:26:31;20.02;;;5.38;;
48859;SDS011;34679;51.436;-2.518;2023-04-25T00:28:58;11.05;;;4.93;;
48859;SDS011;34679;51.436;-2.518;2023-04-25T00:31:24;13.55;;;4.93;;
48859;SDS011;34679;51.436;-2.518;2023-04-25T00:33:49;16.10;;;5.50;;
48859;SDS011;34679;51.436;-2.518;2023-04-25T00:36:15;20.23;;;5.50;;
48859;SDS011;34679;51.436;-2.518;2023-04-25T00:38:42;18.52;;;6.13;;
48859;SDS011;34679;51.436;-2.518;2023-04-25T00:41:07;17.08;;;5.10;;
48859;SDS011;34679;51.436;-2.518;2023-04-25T00:43:33;18.20;;;5.32;;
48859;SDS011;34679;51.436;-2.518;2023-04-25T00:46:01;15.32;;;5.13;;
48859;SDS011;34679;51.436;-2.518;2023-04-25T00:48:26;17.55;;;5.03;;
48859;SDS011;34679;51.436;-2.518;2023-04-25T00:50:53;24.58;;;5.80;;
48859;SDS011;34679;51.436;-2.518;2023-04-25T00:53:21;16.83;;;5.35;;
48859;SDS011;34679;51.436;-2.518;2023-04-25T00:55:47;16.90;;;5.63;;
48859;SDS011;34679;51.436;-2.518;2023-04-25T00:58:15;12.13;;;4.20;;
48859;SDS011;34679;51.436;-2.518;2023-04-25T01:00:45;17.52;;;5.68;;
48859;SDS011;34679;51.436;-2.518;2023-04-25T01:03:16;15.88;;;5.93;;
48859;SDS011;34679;51.436;-2.518;2023-04-25T01:05:44;21.55;;;4.70;;
48859;SDS011;34679;51.436;-2.518;2023-04-25T01:08:10;18.90;;;4.97;;
48859;SDS011;34679;51.436;-2.518;2023-04-25T01:10:36;14.88;;;4.85;;
48859;SDS011;34679;51.436;-2.518;2023-04-25T01:13:02;15.77;;;4.63;;
48859;SDS011;34679;51.436;-2.518;2023-04-25T01:15:28;18.75;;;5.20;;
48859;SDS011;34679;51.436;-2.518;2023-04-25T01:17:54;13.80;;;4.65;;
48859;SDS011;34679;51.436;-2.518;2023-04-25T01:20:21;16.70;;;5.82;;
48859;SDS011;34679;51.436;-2.518;2023-04-25T01:22:51;10.98;;;6.25;;
48859;SDS011;34679;51.436;-2.518;2023-04-25T01:25:18;15.35;;;4.82;;
48859;SDS011;34679;51.436;-2.518;2023-04-25T01:27:44;19.52;;;5.55;;
48859;SDS011;34679;51.436;-2.518;2023-04-25T01:30:11;17.15;;;6.53;;
48859;SDS011;34679;51.436;-2.518;2023-04-25T01:32:37;14.57;;;5.57;;
48859;SDS011;34679;51.436;-2.518;2023-04-25T01:35:04;14.25;;;5.82;;
48859;SDS011;34679;51.436;-2.518;2023-04-25T01:37:43;16.63;;;6.13;;
48859;SDS011;34679;51.436;-2.518;2023-04-25T01:40:10;19.17;;;5.43;;
48859;SDS011;34679;51.436;-2.518;2023-04-25T01:42:41;18.83;;;5.13;;
48859;SDS011;34679;51.436;-2.518;2023-04-25T01:45:08;19.00;;;5.38;;
48859;SDS011;34679;51.436;-2.518;2023-04-25T01:47:36;13.13;;;5.25;;
48859;SDS011;34679;51.436;-2.518;2023-04-25T01:50:02;10.00;;;4.82;;
48859;SDS011;34679;51.436;-2.518;2023-04-25T01:52:29;10.25;;;4.30;;
48859;SDS011;34679;51.436;-2.518;2023-04-25T01:54:55;23.42;;;6.05;;
48859;SDS011;34679;51.436;-2.518;2023-04-25T01:57:22;16.98;;;5.05;;
48859;SDS011;34679;51.436;-2.518;2023-04-25T01:59:48;14.75;;;3.72;;
48859;SDS011;34679;51.436;-2.518;2023-04-25T02:02:15;15.32;;;4.78;;
48859;SDS011;34679;51.436;-2.518;2023-04-25T02:04:40;14.02;;;4.13;;
48859;SDS011;34679;51.436;-2.518;2023-04-25T02:07:06;11.88;;;4.03;;
48859;SDS011;34679;51.436;-2.518;2023-04-25T02:09:31;13.38;;;3.35;;
48859;SDS011;34679;51.436;-2.518;2023-04-25T02:11:57;14.70;;;3.67;;
48859;SDS011;34679;51.436;-2.518;2023-04-25T02:14:23;17.73;;;3.70;;
48859;SDS011;34679;51.436;-2.518;2023-04-25T02:16:49;26.83;;;4.47;;
48859;SDS011;34679;51.436;-2.518;2023-04-25T02:19:16;12.88;;;4.15;;
48859;SDS011;34679;51.436;-2.518;2023-04-25T02:21:41;21.52;;;4.22;;
48859;SDS011;34679;51.436;-2.518;2023-04-25T02:24:07;18.33;;;4.50;;
48859;SDS011;34679;51.436;-2.518;2023-04-25T02:26:33;15.20;;;3.63;;
48859;SDS011;34679;51.436;-2.518;2023-04-25T02:28:59;10.23;;;3.72;;
48859;SDS011;34679;51.436;-2.518;2023-04-25T02:31:26;13.52;;;3.53;;
48859;SDS011;34679;51.436;-2.518;2023-04-25T02:33:51;10.50;;;3.65;;
48859;SDS011;34679;51.436;-2.518;2023-04-25T02:36:17;12.85;;;4.32;;
48859;SDS011;34679;51.436;-2.518;2023-04-25T02:38:43;23.27;;;4.35;;
48859;SDS011;34679;51.436;-2.518;2023-04-25T02:41:08;16.17;;;3.65;;
48859;SDS011;34679;51.436;-2.518;2023-04-25T02:43:34;13.07;;;3.85;;
48859;SDS011;34679;51.436;-2.518;2023-04-25T02:46:00;17.98;;;5.32;;
48859;SDS011;34679;51.436;-2.518;2023-04-25T02:48:25;22.70;;;4.55;;
48859;SDS011;34679;51.436;-2.518;2023-04-25T02:50:51;11.52;;;4.70;;
48859;SDS011;34679;51.436;-2.518;2023-04-25T02:53:17;13.45;;;4.93;;
48859;SDS011;34679;51.436;-2.518;2023-04-25T02:55:43;16.17;;;4.00;;
48859;SDS011;34679;51.436;-2.518;2023-04-25T02:58:08;19.80;;;4.45;;
48859;SDS011;34679;51.436;-2.518;2023-04-25T03:00:35;16.13;;;5.35;;
48859;SDS011;34679;51.436;-2.518;2023-04-25T03:03:00;14.80;;;4.72;;
48859;SDS011;34679;51.436;-2.518;2023-04-25T03:05:26;17.02;;;4.40;;
48859;SDS011;34679;51.436;-2.518;2023-04-25T03:07:52;17.00;;;4.32;;
48859;SDS011;34679;51.436;-2.518;2023-04-25T03:10:17;16.98;;;4.63;;
48859;SDS011;34679;51.436;-2.518;2023-04-25T03:12:43;17.38;;;4.70;;
48859;SDS011;34679;51.436;-2.518;2023-04-25T03:15:09;17.77;;;4.15;;
48859;SDS011;34679;51.436;-2.518;2023-04-25T03:17:35;17.95;;;4.80;;
48859;SDS011;34679;51.436;-2.518;2023-04-25T03:20:00;21.13;;;5.10;;
48859;SDS011;34679;51.436;-2.518;2023-04-25T03:22:28;12.18;;;4.25;;
48859;SDS011;34679;51.436;-2.518;2023-04-25T03:24:54;19.80;;;6.07;;
48859;SDS011;34679;51.436;-2.518;2023-04-25T03:27:20;11.65;;;4.60;;
48859;SDS011;34679;51.436;-2.518;2023-04-25T03:29:46;16.15;;;4.97;;
48859;SDS011;34679;51.436;-2.518;2023-04-25T03:32:11;16.92;;;4.38;;
48859;SDS011;34679;51.436;-2.518;2023-04-25T03:34:37;9.50;;;4.30;;
48859;SDS011;34679;51.436;-2.518;2023-04-25T03:37:03;15.45;;;4.70;;
48859;SDS011;34679;51.436;-2.518;2023-04-25T03:39:28;15.85;;;5.10;;
48859;SDS011;34679;51.436;-2.518;2023-04-25T03:41:55;19.38;;;4.88;;
48859;SDS011;34679;51.436;-2.518;2023-04-25T03:44:20;16.02;;;4.68;;
48859;SDS011;34679;51.436;-2.518;2023-04-25T03:46:46;23.08;;;5.53;;
48859;SDS011;34679;51.436;-2.518;2023-04-25T03:49:11;17.42;;;5.30;;
48859;SDS011;34679;51.436;-2.518;2023-04-25T03:51:38;19.10;;;5.18;;
48859;SDS011;34679;51.436;-2.518;2023-04-25T03:54:04;15.75;;;4.50;;
48859;SDS011;34679;51.436;-2.518;2023-04-25T03:56:29;19.77;;;4.60;;
48859;SDS011;34679;51.436;-2.518;2023-04-25T03:58:55;9.55;;;3.67;;
48859;SDS011;34679;51.436;-2.518;2023-04-25T04:01:21;27.48;;;4.88;;
48859;SDS011;34679;51.436;-2.518;2023-04-25T04:03:46;10.25;;;3.92;;
48859;SDS011;34679;51.436;-2.518;2023-04-25T04:06:12;16.13;;;4.28;;
48859;SDS011;34679;51.436;-2.518;2023-04-25T04:08:38;16.95;;;4.13;;
48859;SDS011;34679;51.436;-2.518;2023-04-25T04:11:04;18.38;;;4.95;;
48859;SDS011;34679;51.436;-2.518;2023-04-25T04:13:30;20.95;;;6.22;;
48859;SDS011;34679;51.436;-2.518;2023-04-25T04:15:55;28.75;;;7.38;;
48859;SDS011;34679;51.436;-2.518;2023-04-25T04:18:22;23.02;;;6.47;;
48859;SDS011;34679;51.436;-2.518;2023-04-25T04:20:48;18.70;;;5.65;;
48859;SDS011;34679;51.436;-2.518;2023-04-25T04:23:13;20.55;;;5.93;;
48859;SDS011;34679;51.436;-2.518;2023-04-25T04:25:40;17.52;;;6.50;;
48859;SDS011;34679;51.436;-2.518;2023-04-25T04:28:06;21.35;;;5.32;;
48859;SDS011;34679;51.436;-2.518;2023-04-25T04:30:32;15.35;;;5.10;;
48859;SDS011;34679;51.436;-2.518;2023-04-25T04:33:01;14.15;;;3.55;;
48859;SDS011;34679;51.436;-2.518;2023-04-25T04:35:28;18.00;;;4.25;;
48859;SDS011;34679;51.436;-2.518;2023-04-25T04:37:54;18.05;;;4.93;;
48859;SDS011;34679;51.436;-2.518;2023-04-25T04:40:20;15.05;;;4.15;;
48859;SDS011;34679;51.436;-2.518;2023-04-25T04:42:46;13.13;;;3.97;;
48859;SDS011;34679;51.436;-2.518;2023-04-25T04:45:13;12.07;;;4.13;;
48859;SDS011;34679;51.436;-2.518;2023-04-25T04:47:39;10.75;;;3.72;;
48859;SDS011;34679;51.436;-2.518;2023-04-25T04:50:08;16.73;;;4.65;;
48859;SDS011;34679;51.436;-2.518;2023-04-25T04:52:35;12.60;;;4.40;;
48859;SDS011;34679;51.436;-2.518;2023-04-25T04:55:02;13.57;;;3.38;;
48859;SDS011;34679;51.436;-2.518;2023-04-25T04:57:28;14.82;;;5.53;;
48859;SDS011;34679;51.436;-2.518;2023-04-25T04:59:54;7.55;;;3.53;;
48859;SDS011;34679;51.436;-2.518;2023-04-25T05:02:20;11.20;;;3.95;;
48859;SDS011;34679;51.436;-2.518;2023-04-25T05:04:46;21.90;;;3.88;;
48859;SDS011;34679;51.436;-2.518;2023-04-25T05:07:12;15.50;;;3.95;;
48859;SDS011;34679;51.436;-2.518;2023-04-25T05:09:37;11.32;;;4.43;;
48859;SDS011;34679;51.436;-2.518;2023-04-25T05:12:03;13.95;;;4.00;;
48859;SDS011;34679;51.436;-2.518;2023-04-25T05:14:29;13.30;;;3.72;;
48859;SDS011;34679;51.436;-2.518;2023-04-25T05:16:55;16.20;;;4.28;;
48859;SDS011;34679;51.436;-2.518;2023-04-25T05:19:21;10.50;;;3.80;;
48859;SDS011;34679;51.436;-2.518;2023-04-25T05:21:47;16.08;;;4.57;;
48859;SDS011;34679;51.436;-2.518;2023-04-25T05:24:12;15.65;;;4.13;;
48859;SDS011;34679;51.436;-2.518;2023-04-25T05:26:38;11.27;;;3.80;;
48859;SDS011;34679;51.436;-2.518;2023-04-25T05:29:04;14.77;;;4.20;;
48859;SDS011;34679;51.436;-2.518;2023-04-25T05:31:30;12.90;;;4.20;;
48859;SDS011;34679;51.436;-2.518;2023-04-25T05:33:56;11.18;;;3.22;;
48859;SDS011;34679;51.436;-2.518;2023-04-25T05:36:22;9.95;;;3.08;;
48859;SDS011;34679;51.436;-2.518;2023-04-25T05:38:48;11.90;;;3.08;;
48859;SDS011;34679;51.436;-2.518;2023-04-25T05:41:14;9.90;;;2.75;;
48859;SDS011;34679;51.436;-2.518;2023-04-25T05:43:40;11.25;;;2.78;;
48859;SDS011;34679;51.436;-2.518;2023-04-25T05:46:10;8.85;;;2.30;;
48859;SDS011;34679;51.436;-2.518;2023-04-25T05:48:36;11.98;;;2.97;;
48859;SDS011;34679;51.436;-2.518;2023-04-25T05:51:02;8.02;;;2.30;;
48859;SDS011;34679;51.436;-2.518;2023-04-25T05:53:28;16.65;;;2.53;;
48859;SDS011;34679;51.436;-2.518;2023-04-25T05:55:54;9.90;;;3.20;;
48859;SDS011;34679;51.436;-2.518;2023-04-25T05:58:19;8.30;;;3.47;;
48859;SDS011;34679;51.436;-2.518;2023-04-25T06:00:45;7.30;;;2.50;;
48859;SDS011;34679;51.436;-2.518;2023-04-25T06:03:11;7.82;;;1.92;;
48859;SDS011;34679;51.436;-2.518;2023-04-25T06:05:39;10.18;;;2.22;;
48859;SDS011;34679;51.436;-2.518;2023-04-25T06:08:08;10.15;;;2.67;;
48859;SDS011;34679;51.436;-2.518;2023-04-25T06:10:35;8.48;;;3.20;;
48859;SDS011;34679;51.436;-2.518;2023-04-25T06:13:01;7.53;;;2.50;;
48859;SDS011;34679;51.436;-2.518;2023-04-25T06:15:27;7.43;;;2.70;;
48859;SDS011;34679;51.436;-2.518;2023-04-25T06:17:53;9.10;;;2.45;;
48859;SDS011;34679;51.436;-2.518;2023-04-25T06:20:19;7.70;;;2.47;;
48859;SDS011;34679;51.436;-2.518;2023-04-25T06:22:48;10.50;;;2.50;;
48859;SDS011;34679;51.436;-2.518;2023-04-25T06:25:14;12.00;;;2.50;;
48859;SDS011;34679;51.436;-2.518;2023-04-25T06:27:40;9.77;;;2.60;;
48859;SDS011;34679;51.436;-2.518;2023-04-25T06:30:06;7.03;;;2.45;;
48859;SDS011;34679;51.436;-2.518;2023-04-25T06:32:32;10.80;;;2.95;;
48859;SDS011;34679;51.436;-2.518;2023-04-25T06:34:59;14.07;;;2.70;;
48859;SDS011;34679;51.436;-2.518;2023-04-25T06:37:25;8.82;;;2.28;;
48859;SDS011;34679;51.436;-2.518;2023-04-25T06:39:51;9.60;;;2.53;;
48859;SDS011;34679;51.436;-2.518;2023-04-25T06:42:17;8.27;;;3.33;;
48859;SDS011;34679;51.436;-2.518;2023-04-25T06:44:42;8.18;;;2.30;;
48859;SDS011;34679;51.436;-2.518;2023-04-25T06:47:08;11.60;;;3.00;;
48859;SDS011;34679;51.436;-2.518;2023-04-25T06:49:34;12.13;;;2.40;;
48859;SDS011;34679;51.436;-2.518;2023-04-25T06:51:59;10.77;;;2.65;;
48859;SDS011;34679;51.436;-2.518;2023-04-25T06:54:25;9.27;;;2.72;;
48859;SDS011;34679;51.436;-2.518;2023-04-25T06:56:53;13.88;;;2.50;;
48859;SDS011;34679;51.436;-2.518;2023-04-25T06:59:19;8.75;;;2.47;;
48859;SDS011;34679;51.436;-2.518;2023-04-25T07:01:45;10.98;;;2.90;;
48859;SDS011;34679;51.436;-2.518;2023-04-25T07:04:10;12.95;;;2.60;;
48859;SDS011;34679;51.436;-2.518;2023-04-25T07:06:36;7.65;;;2.13;;
48859;SDS011;34679;51.436;-2.518;2023-04-25T07:09:07;14.05;;;2.90;;
48859;SDS011;34679;51.436;-2.518;2023-04-25T07:11:34;8.40;;;2.40;;
48859;SDS011;34679;51.436;-2.518;2023-04-25T07:14:00;8.60;;;3.40;;
48859;SDS011;34679;51.436;-2.518;2023-04-25T07:16:27;14.60;;;2.38;;
48859;SDS011;34679;51.436;-2.518;2023-04-25T07:18:52;10.57;;;2.10;;
48859;SDS011;34679;51.436;-2.518;2023-04-25T07:21:18;16.95;;;2.75;;
48859;SDS011;34679;51.436;-2.518;2023-04-25T07:23:44;7.63;;;2.22;;
48859;SDS011;34679;51.436;-2.518;2023-04-25T07:26:09;17.27;;;2.75;;
48859;SDS011;34679;51.436;-2.518;2023-04-25T07:28:35;12.48;;;2.33;;
48859;SDS011;34679;51.436;-2.518;2023-04-25T07:31:01;7.70;;;2.53;;
48859;SDS011;34679;51.436;-2.518;2023-04-25T07:33:27;8.57;;;2.03;;
48859;SDS011;34679;51.436;-2.518;2023-04-25T07:35:53;8.43;;;2.60;;
48859;SDS011;34679;51.436;-2.518;2023-04-25T07:38:19;12.40;;;2.50;;
48859;SDS011;34679;51.436;-2.518;2023-04-25T07:40:45;7.47;;;2.40;;
48859;SDS011;34679;51.436;-2.518;2023-04-25T07:43:12;8.02;;;1.95;;
48859;SDS011;34679;51.436;-2.518;2023-04-25T07:45:41;12.40;;;2.55;;
48859;SDS011;34679;51.436;-2.518;2023-04-25T07:48:10;13.13;;;2.17;;
48859;SDS011;34679;51.436;-2.518;2023-04-25T07:50:36;8.35;;;2.78;;
48859;SDS011;34679;51.436;-2.518;2023-04-25T07:53:02;9.93;;;1.90;;
48859;SDS011;34679;51.436;-2.518;2023-04-25T07:55:28;8.05;;;2.05;;
48859;SDS011;34679;51.436;-2.518;2023-04-25T07:57:53;9.50;;;2.28;;
48859;SDS011;34679;51.436;-2.518;2023-04-25T08:00:19;4.78;;;1.70;;
48859;SDS011;34679;51.436;-2.518;2023-04-25T08:02:45;5.40;;;1.70;;
48859;SDS011;34679;51.436;-2.518;2023-04-25T08:05:11;8.15;;;2.25;;
48859;SDS011;34679;51.436;-2.518;2023-04-25T08:07:39;6.38;;;2.30;;
48859;SDS011;34679;51.436;-2.518;2023-04-25T08:10:05;5.55;;;1.88;;
48859;SDS011;34679;51.436;-2.518;2023-04-25T08:12:32;10.18;;;1.83;;
48859;SDS011;34679;51.436;-2.518;2023-04-25T08:14:58;6.93;;;1.63;;
48859;SDS011;34679;51.436;-2.518;2023-04-25T08:17:23;11.60;;;1.83;;
48859;SDS011;34679;51.436;-2.518;2023-04-25T08:19:49;8.55;;;2.05;;
48859;SDS011;34679;51.436;-2.518;2023-04-25T08:22:15;3.65;;;1.25;;
48859;SDS011;34679;51.436;-2.518;2023-04-25T08:24:41;6.47;;;2.08;;
48859;SDS011;34679;51.436;-2.518;2023-04-25T08:27:07;7.20;;;1.73;;
48859;SDS011;34679;51.436;-2.518;2023-04-25T08:29:33;7.95;;;2.15;;
48859;SDS011;34679;51.436;-2.518;2023-04-25T08:31:59;7.78;;;1.50;;
48859;SDS011;34679;51.436;-2.518;2023-04-25T08:34:24;7.30;;;1.90;;
48859;SDS011;34679;51.436;-2.518;2023-04-25T08:36:50;9.55;;;2.10;;
48859;SDS011;34679;51.436;-2.518;2023-04-25T08:39:16;6.38;;;1.48;;
48859;SDS011;34679;51.436;-2.518;2023-04-25T08:41:42;3.60;;;1.30;;
48859;SDS011;34679;51.436;-2.518;2023-04-25T08:44:09;6.53;;;1.30;;
48859;SDS011;34679;51.436;-2.518;2023-04-25T08:46:38;7.30;;;1.50;;
48859;SDS011;34679;51.436;-2.518;2023-04-25T08:49:05;5.40;;;1.40;;
48859;SDS011;34679;51.436;-2.518;2023-04-25T08:51:34;13.50;;;2.63;;
48859;SDS011;34679;51.436;-2.518;2023-04-25T08:54:09;5.72;;;1.48;;
48859;SDS011;34679;51.436;-2.518;2023-04-25T08:56:37;4.10;;;1.50;;
48859;SDS011;34679;51.436;-2.518;2023-04-25T08:59:05;9.30;;;1.23;;
48859;SDS011;34679;51.436;-2.518;2023-04-25T09:01:33;2.95;;;0.95;;
48859;SDS011;34679;51.436;-2.518;2023-04-25T09:04:00;2.70;;;1.00;;
48859;SDS011;34679;51.436;-2.518;2023-04-25T09:06:27;3.63;;;1.30;;
48859;SDS011;34679;51.436;-2.518;2023-04-25T09:09:03;3.42;;;0.88;;
48859;SDS011;34679;51.436;-2.518;2023-04-25T09:11:30;5.25;;;1.45;;
48859;SDS011;34679;51.436;-2.518;2023-04-25T09:14:13;5.78;;;1.55;;
48859;SDS011;34679;51.436;-2.518;2023-04-25T09:19:24;3.78;;;0.98;;
48859;SDS011;34679;51.436;-2.518;2023-04-25T09:21:50;3.67;;;0.85;;
48859;SDS011;34679;51.436;-2.518;2023-04-25T09:24:31;2.78;;;1.00;;
48859;SDS011;34679;51.436;-2.518;2023-04-25T09:27:00;6.88;;;1.13;;
48859;SDS011;34679;51.436;-2.518;2023-04-25T09:29:29;3.35;;;1.60;;
48859;SDS011;34679;51.436;-2.518;2023-04-25T09:34:41;3.90;;;1.00;;
48859;SDS011;34679;51.436;-2.518;2023-04-25T09:37:11;2.53;;;0.80;;
48859;SDS011;34679;51.436;-2.518;2023-04-25T09:39:37;5.13;;;0.90;;
48859;SDS011;34679;51.436;-2.518;2023-04-25T09:42:04;3.72;;;1.10;;
48859;SDS011;34679;51.436;-2.518;2023-04-25T09:44:30;12.23;;;1.38;;
48859;SDS011;34679;51.436;-2.518;2023-04-25T09:46:56;3.30;;;1.08;;
48859;SDS011;34679;51.436;-2.518;2023-04-25T09:49:22;4.88;;;1.10;;
48859;SDS011;34679;51.436;-2.518;2023-04-25T09:51:58;2.65;;;1.10;;
48859;SDS011;34679;51.436;-2.518;2023-04-25T09:54:24;4.60;;;2.20;;
48859;SDS011;34679;51.436;-2.518;2023-04-25T09:56:53;4.20;;;1.00;;
48859;SDS011;34679;51.436;-2.518;2023-04-25T09:59:22;3.42;;;1.13;;
48859;SDS011;34679;51.436;-2.518;2023-04-25T10:01:49;5.28;;;1.55;;
48859;SDS011;34679;51.436;-2.518;2023-04-25T10:04:19;2.28;;;0.90;;
48859;SDS011;34679;51.436;-2.518;2023-04-25T10:06:50;3.75;;;1.13;;
48859;SDS011;34679;51.436;-2.518;2023-04-25T10:09:19;8.23;;;0.93;;
48859;SDS011;34679;51.436;-2.518;2023-04-25T10:11:47;2.83;;;1.15;;
48859;SDS011;34679;51.436;-2.518;2023-04-25T10:14:13;6.18;;;1.83;;
48859;SDS011;34679;51.436;-2.518;2023-04-25T10:16:39;4.70;;;2.35;;
48859;SDS011;34679;51.436;-2.518;2023-04-25T10:19:06;4.53;;;1.65;;
48859;SDS011;34679;51.436;-2.518;2023-04-25T10:21:33;6.68;;;1.40;;
48859;SDS011;34679;51.436;-2.518;2023-04-25T10:24:05;5.10;;;1.17;;
48859;SDS011;34679;51.436;-2.518;2023-04-25T10:26:31;3.30;;;1.05;;
48859;SDS011;34679;51.436;-2.518;2023-04-25T10:28:59;6.72;;;1.55;;
48859;SDS011;34679;51.436;-2.518;2023-04-25T10:31:26;4.13;;;1.30;;
48859;SDS011;34679;51.436;-2.518;2023-04-25T10:33:52;2.17;;;1.35;;
48859;SDS011;34679;51.436;-2.518;2023-04-25T10:36:19;7.95;;;1.55;;
48859;SDS011;34679;51.436;-2.518;2023-04-25T10:38:47;3.15;;;1.15;;
48859;SDS011;34679;51.436;-2.518;2023-04-25T10:41:15;6.32;;;1.38;;
48859;SDS011;34679;51.436;-2.518;2023-04-25T10:43:44;4.90;;;1.30;;
48859;SDS011;34679;51.436;-2.518;2023-04-25T10:46:14;3.63;;;1.30;;
48859;SDS011;34679;51.436;-2.518;2023-04-25T10:48:48;4.38;;;1.13;;
48859;SDS011;34679;51.436;-2.518;2023-04-25T10:51:27;5.15;;;1.27;;
48859;SDS011;34679;51.436;-2.518;2023-04-25T10:59:19;2.53;;;1.30;;
48859;SDS011;34679;51.436;-2.518;2023-04-25T11:01:46;3.05;;;1.15;;
48859;SDS011;34679;51.436;-2.518;2023-04-25T11:04:20;7.03;;;1.30;;
48859;SDS011;34679;51.436;-2.518;2023-04-25T11:09:36;2.67;;;1.23;;
48859;SDS011;34679;51.436;-2.518;2023-04-25T11:12:06;4.10;;;1.00;;
48859;SDS011;34679;51.436;-2.518;2023-04-25T11:14:33;2.85;;;1.20;;
48859;SDS011;34679;51.436;-2.518;2023-04-25T11:16:59;6.65;;;1.10;;
48859;SDS011;34679;51.436;-2.518;2023-04-25T11:19:28;6.72;;;1.95;;
48859;SDS011;34679;51.436;-2.518;2023-04-25T11:21:55;3.72;;;1.40;;
48859;SDS011;34679;51.436;-2.518;2023-04-25T11:24:32;3.00;;;1.00;;
48859;SDS011;34679;51.436;-2.518;2023-04-25T11:26:59;7.35;;;1.67;;
48859;SDS011;34679;51.436;-2.518;2023-04-25T11:29:30;5.45;;;1.80;;
48859;SDS011;34679;51.436;-2.518;2023-04-25T11:31:57;3.05;;;0.95;;
48859;SDS011;34679;51.436;-2.518;2023-04-25T11:34:23;3.92;;;1.20;;
48859;SDS011;34679;51.436;-2.518;2023-04-25T11:36:50;3.65;;;1.05;;
48859;SDS011;34679;51.436;-2.518;2023-04-25T11:39:17;3.90;;;1.00;;
48859;SDS011;34679;51.436;-2.518;2023-04-25T11:41:44;3.78;;;1.05;;
48859;SDS011;34679;51.436;-2.518;2023-04-25T11:44:09;6.70;;;1.48;;
48859;SDS011;34679;51.436;-2.518;2023-04-25T11:46:35;2.53;;;0.80;;
48859;SDS011;34679;51.436;-2.518;2023-04-25T11:49:01;3.33;;;1.33;;
48859;SDS011;34679;51.436;-2.518;2023-04-25T11:51:29;2.17;;;1.05;;
48859;SDS011;34679;51.436;-2.518;2023-04-25T11:53:55;4.50;;;1.00;;
48859;SDS011;34679;51.436;-2.518;2023-04-25T11:56:21;2.72;;;1.23;;
48859;SDS011;34679;51.436;-2.518;2023-04-25T11:58:54;3.55;;;0.80;;
48859;SDS011;34679;51.436;-2.518;2023-04-25T12:01:30;2.33;;;0.77;;
48859;SDS011;34679;51.436;-2.518;2023-04-25T12:06:57;1.95;;;0.95;;
48859;SDS011;34679;51.436;-2.518;2023-04-25T12:09:29;5.32;;;0.90;;
48859;SDS011;34679;51.436;-2.518;2023-04-25T12:11:58;2.85;;;1.13;;
48859;SDS011;34679;51.436;-2.518;2023-04-25T12:14:28;3.70;;;1.23;;
48859;SDS011;34679;51.436;-2.518;2023-04-25T12:16:58;5.35;;;1.20;;
48859;SDS011;34679;51.436;-2.518;2023-04-25T12:19:25;2.05;;;0.93;;
48859;SDS011;34679;51.436;-2.518;2023-04-25T12:21:57;2.88;;;0.93;;
48859;SDS011;34679;51.436;-2.518;2023-04-25T12:24:23;5.47;;;0.90;;
48859;SDS011;34679;51.436;-2.518;2023-04-25T12:26:58;1.67;;;0.73;;
48859;SDS011;34679;51.436;-2.518;2023-04-25T12:29:28;8.10;;;2.17;;
48859;SDS011;34679;51.436;-2.518;2023-04-25T12:31:55;6.78;;;1.48;;
48859;SDS011;34679;51.436;-2.518;2023-04-25T12:34:22;2.28;;;1.00;;
48859;SDS011;34679;51.436;-2.518;2023-04-25T12:36:49;4.82;;;1.00;;
48859;SDS011;34679;51.436;-2.518;2023-04-25T12:39:16;3.67;;;1.10;;
48859;SDS011;34679;51.436;-2.518;2023-04-25T12:41:49;2.72;;;0.85;;
48859;SDS011;34679;51.436;-2.518;2023-04-25T12:44:21;1.67;;;0.90;;
48859;SDS011;34679;51.436;-2.518;2023-04-25T12:46:47;4.00;;;1.05;;
48859;SDS011;34679;51.436;-2.518;2023-04-25T12:49:13;3.30;;;1.10;;
48859;SDS011;34679;51.436;-2.518;2023-04-25T12:51:39;6.65;;;2.33;;
48859;SDS011;34679;51.436;-2.518;2023-04-25T12:54:06;1.55;;;0.70;;
48859;SDS011;34679;51.436;-2.518;2023-04-25T12:56:33;1.55;;;0.95;;
48859;SDS011;34679;51.436;-2.518;2023-04-25T12:59:00;2.22;;;0.98;;
48859;SDS011;34679;51.436;-2.518;2023-04-25T13:01:26;5.70;;;1.30;;
48859;SDS011;34679;51.436;-2.518;2023-04-25T13:03:52;4.20;;;2.00;;
48859;SDS011;34679;51.436;-2.518;2023-04-25T13:06:18;2.63;;;0.90;;
48859;SDS011;34679;51.436;-2.518;2023-04-25T13:08:48;3.97;;;1.10;;
48859;SDS011;34679;51.436;-2.518;2023-04-25T13:11:13;3.65;;;1.13;;
48859;SDS011;34679;51.436;-2.518;2023-04-25T13:13:40;3.10;;;1.10;;
48859;SDS011;34679;51.436;-2.518;2023-04-25T13:16:06;1.42;;;0.80;;
48859;SDS011;34679;51.436;-2.518;2023-04-25T13:18:33;2.03;;;0.90;;
48859;SDS011;34679;51.436;-2.518;2023-04-25T13:20:59;1.92;;;1.10;;
48859;SDS011;34679;51.436;-2.518;2023-04-25T13:23:25;4.45;;;1.00;;
48859;SDS011;34679;51.436;-2.518;2023-04-25T13:25:52;2.35;;;1.00;;
48859;SDS011;34679;51.436;-2.518;2023-04-25T13:28:19;3.40;;;0.90;;
48859;SDS011;34679;51.436;-2.518;2023-04-25T13:30:44;4.13;;;1.70;;
48859;SDS011;34679;51.436;-2.518;2023-04-25T13:33:12;5.03;;;1.45;;
48859;SDS011;34679;51.436;-2.518;2023-04-25T13:35:37;5.68;;;1.08;;
48859;SDS011;34679;51.436;-2.518;2023-04-25T13:38:03;4.25;;;1.25;;
48859;SDS011;34679;51.436;-2.518;2023-04-25T13:40:29;3.22;;;1.20;;
48859;SDS011;34679;51.436;-2.518;2023-04-25T13:42:56;4.72;;;0.95;;
48859;SDS011;34679;51.436;-2.518;2023-04-25T13:45:22;4.10;;;1.02;;
48859;SDS011;34679;51.436;-2.518;2023-04-25T13:47:48;2.50;;;0.80;;
48859;SDS011;34679;51.436;-2.518;2023-04-25T13:50:14;2.80;;;0.90;;
48859;SDS011;34679;51.436;-2.518;2023-04-25T13:52:41;2.47;;;1.00;;
48859;SDS011;34679;51.436;-2.518;2023-04-25T13:55:07;2.17;;;0.90;;
48859;SDS011;34679;51.436;-2.518;2023-04-25T13:57:33;1.35;;;0.95;;
48859;SDS011;34679;51.436;-2.518;2023-04-25T13:59:59;4.10;;;1.20;;
48859;SDS011;34679;51.436;-2.518;2023-04-25T14:02:31;5.97;;;1.33;;
48859;SDS011;34679;51.436;-2.518;2023-04-25T14:04:56;7.32;;;1.77;;
48859;SDS011;34679;51.436;-2.518;2023-04-25T14:07:22;3.50;;;2.28;;
48859;SDS011;34679;51.436;-2.518;2023-04-25T14:09:48;2.28;;;0.88;;
48859;SDS011;34679;51.436;-2.518;2023-04-25T14:12:15;2.35;;;0.75;;
48859;SDS011;34679;51.436;-2.518;2023-04-25T14:14:41;2.97;;;1.10;;
48859;SDS011;34679;51.436;-2.518;2023-04-25T14:17:07;4.00;;;1.20;;
48859;SDS011;34679;51.436;-2.518;2023-04-25T14:19:34;1.75;;;0.93;;
48859;SDS011;34679;51.436;-2.518;2023-04-25T14:21:59;3.05;;;0.80;;
48859;SDS011;34679;51.436;-2.518;2023-04-25T14:24:25;2.50;;;1.40;;
48859;SDS011;34679;51.436;-2.518;2023-04-25T14:26:51;5.97;;;0.85;;
48859;SDS011;34679;51.436;-2.518;2023-04-25T14:29:16;2.88;;;0.90;;
48859;SDS011;34679;51.436;-2.518;2023-04-25T14:31:42;2.25;;;0.93;;
48859;SDS011;34679;51.436;-2.518;2023-04-25T14:34:08;4.88;;;1.00;;
48859;SDS011;34679;51.436;-2.518;2023-04-25T14:36:35;2.53;;;0.90;;
48859;SDS011;34679;51.436;-2.518;2023-04-25T14:39:01;5.55;;;1.35;;
48859;SDS011;34679;51.436;-2.518;2023-04-25T14:41:27;4.28;;;1.10;;
48859;SDS011;34679;51.436;-2.518;2023-04-25T14:43:53;3.80;;;0.77;;